100ml Bottles Import to India

Connect2India provides real time data for 100ml Bottles import, historical 100ml Bottles import analysis, current demand in overseas countries and import price of 100ml Bottles.

100ml Bottles

100ml Bottles import data

Date HS Code Product Description Origin Port Destination Port Quantity Value (INR in Million) Unit Per Unit (INR)
2016-01-30 30049099 PARACETAMOL 40MG/ML SOLUTION 100ML BOTTLE (PARACETAMOL) (QTY: 20 PCS) GERMANY Bombay Air Cargo 2500 0.0 GMS 0.0
2016-01-30 28530099 REPLENISHMENT SOLUTION 100ML BOTTLE (QTY: 5 NUM / USD 39.02 PER NUM) UNITED STATES Bombay Air Cargo 1 0.0236 KGS 23571.0
2016-01-30 28152000 ELECTROLYTE BLACK 100ML. BOTTLES (POTASSIUM HYDROXIDE SOLUTION) (QTY: 5 NUM / USD 73.21 PER NUM) UNITED STATES Bombay Air Cargo 1 0.0442 KGS 44224.0
2016-02-01 34059010 PALLADIO REPLENISHER REINFORCEMENT 100ML/BOTTLE (COMPOUND FOR POLISHING OF SILVER JEWELLERY) AT ANNEXURE-I, SL NO-15 ITALY Delhi Air Cargo 10 0.1162 NOS 11617.0
2016-02-01 29031200 448371000- DICHLOROMETHANE 99.99% EXTRA DRY STABILIZE D ACROSEAL (R), PKG OF 4X25ML BOTTLES (100ML)- FOR LABORATORY USE BELGIUM Banglore Air Cargo 1 0.0013 NOS 1339.0
2016-02-01 15099010 PURE OLIVE OIL "SOLAS BRAND" 100ML. X 40 PET BOTTLE X 215 CTNS = 8600 PET BOTTLE) (EDIBLE GRADE) SPAIN Nhava Sheva Sea 788 0.3177 KGS 403.0
2016-02-02 33059090 MOROCCANOIL TREATMENT FOR ALL HAIR TYPES,GLASS BOTTLE 100ML ISRAEL Nhava Sheva Sea 5040 2.4826 PCS 492.0
2016-02-02 33059090 MOROCCANOIL TREATMENT FOR FINE AND LIGHT HAIR ,GLASS BOTTLE 100ML ISRAEL Nhava Sheva Sea 600 0.2955 PCS 492.0
2016-02-02 38220090 00392333 SPECIAL ELECTROLYTE FOR OZONE BOTTLE (100ML) GERMANY Delhi Air Cargo 4 0.0111 PCS 2774.0
2016-02-03 39269099 QVS 2 TRAVEL BOTTLES 100ML (FLIP TOP) (BEAUTY IMPLEMENT) CHINA Nhava Sheva Sea 9 0.0088 KGS 978.0
2016-02-03 39269099 QVS 2 TRAVEL BOTTLES 100ML (PUMP & SPRAV) (BEAUTY IMPLEMENT) CHINA Nhava Sheva Sea 9 0.007 KGS 783.0
2016-02-03 70179090 100ML SOLVENT BOTTLE FOR LARGE VOLUME WASH STATION (PAL WASHLARGE) OR SOLVENT RESERVOIR (PAL 3XSOLV100) SWITZERLAND Bombay Air Cargo 4 0.0128 PCS 3201.0
2016-02-04 30049099 GUAIFENESIN 100 MG/5ML SYRUP BOTTLE (BALMINIL EXPECTORANT SUCROSE AND ALCOHOL FREE SYRUP) - BOTTLE OF 100ML (8 BOTTLES CANADA Bombay Air Cargo 140 0.0029 GMS 20.0
2016-02-04 70101000 EMPTY BOTTLE 100ML W/CAP (940 PCS) ITALY Hyderabad 240 0.0191 KGS 79.0
2016-02-06 38220090 62001-046-100ML DNAGARD TISSUE 100 ML BOTTLE FOR ROOM [FOR LAB PURPOSE] GERMANY Banglore Air Cargo 1 0.0192 NOS 19203.0
2016-02-06 84779000 PARTS FOR EXTRUDERS - BOTTLES (WIDE MOUTH, 100ML, 1-4658-13) JAPAN Ahmedabad 5 0.001 NOS 201.0
2016-02-08 30039014 HOMOEOPATHIC REMEDIES 65 X 100ML BOTTLES CONTAINING 23% ALCOHOL DILUTED FROM 96% ALCOHOL UNITED KINGDOM Kolkata Air Cargo 16 0.0799 KGS 4992.0
2016-02-09 39269099 BOTTLE 100ML FILLED SILICONE FLUID (3568588) (1 NUM) UNITED KINGDOM Hyderabad Air Cargo 0 0.0017 KGS 0.0
2016-02-09 70101000 EMPTY BOTTLE 100ML W/CAP (940 PCS) ITALY Hyderabad 240 0.0191 KGS 79.0
2016-02-12 34029099 WASH FLUID 100ML: 08Z02WASH01 - 480 CASES ( 100ML x 100 BOTTLES PER CASE ) THAILAND Dadri-ACPL CFS 48000 0.7171 PCS 14.0
2016-02-12 70109000 GLASS BOTTLE (ROOM SPREY 100ML) (13580PCS) CHINA Tuticorin ICD 1940 0.1806 KGS 93.0
2016-02-12 96161020 SPRAY BOTTLE 100ML CHINA Bombay Sea 400 0.0183 DOZ 45.0
2016-02-15 39231090 EMPTY PLASTIC BOTTLE w/LID 100ML (PACKING MATERIAL FOR COSMETICS PRODUCTS) (960 NOS) GERMANY Chennai Air Cargo 7 0.0326 KGS 4650.0
2016-02-15 39233010 (KAUT310-70596)POWDER BOTTLE 100ML PVC TRANSP.(1X80)(PLASTIC ARTICLES) UNITED KINGDOM Banglore Air Cargo 1 0.0016 NOS 1553.0
2016-02-15 38249090 RC1.01.003 SOLUTION RH+ BLACK FOR BATH 2G/100ML NR. 10 BOTTLES ITALY Bombay Air Cargo 20 0.0519 NOS 2593.0
2016-02-15 38249090 RC1.02.002 SOLUTION RH+ WHITE FOR PEN 2GR/100ML NR. 25 BOTTLES ITALY Bombay Air Cargo 50 0.1132 NOS 2264.0
2016-02-15 38249090 VSF1.01.106 EUROGILDING FLASH ROSE GOLD (NO GPC INSIDE) CONCENTRAED IN 100ML BOTTLE ITALY Bombay Air Cargo 50 0.0329 LTR 658.0
2016-02-15 70109000 100ML CLEAR GLASS INFUSION BOTTLES,USP TYPE II (EMPTY GLASSBOTTLES) (194400 PCS UNIT PRICE USD 525/10000 PCS) CHINA Nhava Sheva Sea 20334 0.7056 KGS 34.0
2016-02-15 70179090 VETERINARY EQUIPMENT 100ML GLASS BOTTLE NECK DIAM 25MM ( USE IN VETERINARY ) FRANCE Delhi Air Cargo 3 0.0017 UNT 568.0
2016-02-17 84229090 SET OF CHANGE PARTS (INTERNAL PUCKS, GRIPS) FOR THE 100ML SERENDIPITY 43X31X121MM BOTTLE FORMAT (PART OF PACKAGING MACHI SPAIN Delhi Air Cargo 1 0.5313 SET 531289.0
2016-02-17 70179090 122528- LABORATORY BOTTLE BORO 3.3 GRADUATED 100ML GL 32 SCREW CAP/POURING RING PP - FOR LABORATORY USE GERMANY Banglore Air Cargo 40 0.0119 PCS 298.0
2016-02-17 70179090 122538 - LABORATORY BOTTLE, BORO 3.3, GRADUATED 100ML GL 45 SCREW CAP/POURING RING PP-FOR LABORATORY USE GERMANY Banglore Air Cargo 40 0.0119 PCS 298.0
2016-02-18 70109000 100ML GLASS BOTTLE (25000 PCS) CHINA Tuticorin Sea 3180 0.2957 KGS 92.0
2016-02-18 70139100 GLASS BOTTLE WITH CORK LID-100ML- AX-40 (BAMBOO & PLASTIC SERVEWARE GLASSWARE FOR RESTATURANT & BAR USE) (120 PCS) CHINA Nhava Sheva Sea 40 0.0038 KGS 94.0
2016-02-19 39269099 100ML PLASTIC SPRAY PUMP BOTTLE (19/20) CHINA Chennai Sea 3600 0.0097 PCS 2.0
2016-02-19 28530010 WP1001 LAL REAGENT WATER 100ML PLASTIC BOTTLE (LABORATORY REAGENT WATER) UNITED STATES Delhi Air Cargo 1 4.0E-4 PCS 352.0
2016-02-20 39233090 100ML PET BOTTLE WITH SPRAYER CHINA Nhava Sheva Sea 46 0.0631 KGS 1371.0
2016-02-22 34022090 SOFTAMAN BOTTLE MEA 100ML (500 pc) GERMANY Bombay Air Cargo 29 0.0314 KGS 1081.0
2016-02-22 70139900 100ML MINI MILK BOTTLE WITH LID [2040 PCS] CHINA Nhava Sheva Sea 306 0.0143 KGS 46.0
2016-02-23 30049099 (N.C.V) TERZOLIN (BOTTLE) KETOCONAZOLE 1BOTTLE=100ML 20MG/G (IMP TEST LIC TL/WZ/1549/2015/9175 DT 16/04/2015) FOR TESTIN BELGIUM Bombay Air Cargo 100 0.0561 BTL 560.0
2016-02-23 84805000 GLASS BOTTLE MOULD - BAFFLE (100ML GRAPE) (DG B&B) CHINA Nhava Sheva Sea 3 0.0018 SET 593.0
2016-02-23 84805000 GLASS BOTTLE MOULD - BAFFLE (100ML ME) (DG B&B) CHINA Nhava Sheva Sea 3 0.0018 SET 593.0
2016-02-23 84805000 GLASS BOTTLE MOULD - BAFFLE (100ML REGINA) (DG B&B) CHINA Nhava Sheva Sea 3 0.0018 SET 593.0
2016-02-23 84805000 GLASS BOTTLE MOULD - BAFFLE (100ML SUPREME) (DG B&B) CHINA Nhava Sheva Sea 5 0.003 SET 593.0
2016-02-23 84805000 GLASS BOTTLE MOULD - BLANK MOULD (100ML GRAPE) (DG B&B) CHINA Nhava Sheva Sea 3 0.0083 SET 2780.0
2016-02-23 84805000 GLASS BOTTLE MOULD - BLANK MOULD (100ML ME) (DG B&B) CHINA Nhava Sheva Sea 3 0.0095 SET 3151.0
2016-02-23 84805000 GLASS BOTTLE MOULD - BLANK MOULD (100ML REGINA) (DG B&B) CHINA Nhava Sheva Sea 3 0.0087 SET 2891.0
2016-02-23 84805000 GLASS BOTTLE MOULD - BLANK MOULD (100ML SUPREME) (DG B&B) CHINA Nhava Sheva Sea 5 0.0139 SET 2780.0
2016-02-23 84805000 GLASS BOTTLE MOULD - BLOW MOULD (100ML GRAPE) (DG B&B) CHINA Nhava Sheva Sea 3 0.0087 SET 2891.0
2016-02-23 84805000 GLASS BOTTLE MOULD - BLOW MOULD (100ML ME) (DG B&B) CHINA Nhava Sheva Sea 3 0.0122 SET 4078.0
2016-02-23 84805000 GLASS BOTTLE MOULD - BLOW MOULD (100ML REGINA) (DG B&B) CHINA Nhava Sheva Sea 3 0.0095 SET 3151.0
2016-02-23 84805000 GLASS BOTTLE MOULD - BLOW MOULD (100ML SUPREME) (DG B&B) CHINA Nhava Sheva Sea 5 0.0145 SET 2891.0
2016-02-23 84805000 GLASS BOTTLE MOULD - BOTTOM (100ML GRAPE) (DG B&B) CHINA Nhava Sheva Sea 3 0.002 SET 667.0
2016-02-23 84805000 GLASS BOTTLE MOULD - BOTTOM (100ML ME) (DG B&B) CHINA Nhava Sheva Sea 3 0.002 SET 667.0
2016-02-23 84805000 GLASS BOTTLE MOULD - BOTTOM (100ML REGINA) (DG B&B) CHINA Nhava Sheva Sea 3 0.002 SET 667.0
2016-02-23 84805000 GLASS BOTTLE MOULD - BOTTOM (100ML SUPREME) (DG B&B) CHINA Nhava Sheva Sea 5 0.003 SET 593.0
2016-02-23 84805000 GLASS BOTTLE MOULD - FUNNEL (100ML GRAPE) (DG B&B) CHINA Nhava Sheva Sea 3 0.0013 SET 445.0
2016-02-23 84805000 GLASS BOTTLE MOULD - FUNNEL (100ML ME) (DG B&B) CHINA Nhava Sheva Sea 3 0.0013 SET 445.0
2016-02-23 84805000 GLASS BOTTLE MOULD - FUNNEL (100ML REGINA) (DG B&B) CHINA Nhava Sheva Sea 3 0.0013 SET 445.0
2016-02-23 84805000 GLASS BOTTLE MOULD - FUNNEL (100ML SUPREME) (DG B&B) CHINA Nhava Sheva Sea 5 0.0022 SET 444.0
2016-02-23 70109000 100ML GLASS BOTTLE CHINA Chennai Sea 840 0.2151 KGS 256.0
2016-02-23 70109000 100ML ROUND GLASS BOTTLE CHINA Chennai Sea 10109 0.6157 KGS 60.0
2016-02-24 70139900 CR7795 PROMOTIONAL MATERIAL - TAKE HOME EMPTY 100ML BOTTLE (NOT FOR SALE) CHINA Delhi Air Cargo 255 0.1219 PCS 477.0
2016-02-25 39233090 DUAL CHAMBER PACK (HDPE BOTTLE 100ML) (FOR R & D PURPOSE) ITALY Delhi Air Cargo 2080 0.0205 NOS 9.0
2016-02-27 38220090 TLC/HPTLC-SPRAYER COMPLETE WITH SPRAY HEAD TYPE A AND B REAGENT BOTTLE 100ML ,REAGENT BOTTLE 50ML 022.6530 SWITZERLAND Bombay Air Cargo 2 0.0752 SET 37619.0
2016-03-01 84439959 (COMPUTER LASER PRINTER PARTS) H K5300 UV REFILL KITS PREFILLED WITH UV DYE BASE INK K,C,M,Y, 100ML /BOTTLE (ITEM NO.389 CHINA Nhava Sheva Sea 36 0.0038 PCS 106.0
2016-03-02 30069100 QURION ( SILVERSTREAM) BOTTLES, 100ML ISRAEL Nhava Sheva Sea 888 0.5375 BTL 605.0
2016-03-05 38249090 R1.01.001 SOLUTION RH+WHITE FOR BATH 2G/100ML - NR. 25 BOTTLES ITALY Bombay Air Cargo 50 0.0991 GRS 1981.0
2016-03-05 38249090 RC1.02.002 SOLUTION RH + WHITE FOR PEN 2GR/100ML NR 50 BOTTLES ITALY Bombay Air Cargo 100 0.1966 GRS 1965.0
2016-03-05 70109000 100ML EMPTY GLASS BOTTLE (MAKE XUZHOU MODEL 100ML FOR PACKING) CHINA Patparganj 30000 0.2194 PCS 7.0

Related products

100ml Bottles Trade Data - Indian Ports

S. No Product Product Code Quantity Value (INR in Million) Unit Origin Port Destination Port
100ML CRYSTAL GLASS BOTTLE 70109000 125 0.0104 KGS CHINA Chennai Sea
100ML RECTANGULAR GLASS BOTTLE 70109000 311 0.0242 KGS CHINA Chennai Sea
100ML RIBBED GLASS BOTTLE 70109000 125 0.0104 KGS CHINA Chennai Sea
100ML ROUND GLASS BOTTLE 70109000 111 0.0104 KGS CHINA Chennai Sea
100ML SQUARE GLASS BOTTLE 70109000 241 0.0242 KGS CHINA Chennai Sea
72434303530, 100ML SYRUP BOTTLE, AMBER (EMPTY BOTTLE) (MADE OF PLASTIC) (FOR R & D PURPOSE ONLY) 39269099 72 6.0E-4 PCS AUSTRIA Delhi Air Cargo
448391000-100ML-ACETONITRILE 99-9 EXTRA DRY ACROSEAL ( R ) PACKAGE OF 4X25ML BOTTLES-FOR LABORATORY USE 29269000 1 0.0014 NOS BELGIUM Banglore Air Cargo
448361000-100ML-TETRAHYDROFURAN-99-EXTRA DRY-STABLIZED-ACROSEAL-PACKAGE OF4X25ML BOTTLES-FOR LABORATARY USE 29321100 1 0.0015 NOS BELGIUM Banglore Air Cargo
U.N.CARGO viz., HOSPITAL EQUIPMENT- 215-1592 BOTTLE REAGENTCAP AND RING 100ML VWR BRAND. PROD.HIER:2003201(5 X 10 ITEMS 70109000 14 0.0048 KGS UNITED STATES Bombay Air Cargo
GLASS BOTTLE MOULD - BAFFLE (100ML PNF) (SG) 84805000 3 0.0017 SET CHINA Nhava Sheva Sea
GLASS BOTTLE MOULD - BLANK MOULD (100ML PNF) (SG) 84805000 3 0.0081 SET CHINA Nhava Sheva Sea
GLASS BOTTLE MOULD - FUNNEL (100ML PNF) (SG) 84805000 3 0.0013 SET CHINA Nhava Sheva Sea
GLASS BOTTLE MOULD - NECK RING (100ML PNF) (SG) 84805000 5 0.0041 SET CHINA Nhava Sheva Sea
GLASS BOTTLE MOULD - BLOW HEAD (100ML PNF) (SG) 84805000 3 0.0015 SET CHINA Nhava Sheva Sea
GLASS BOTTLE MOULD - BLOW MOULD (100ML PNF) (SG) 84805000 3 0.0084 SET CHINA Nhava Sheva Sea
GLASS BOTTLE MOULD - BOTTOM (100ML PNF) (SG) 84805000 3 0.0019 SET CHINA Nhava Sheva Sea
GLASS BOTTLE MOULD - GUIDE PLATE (100ML PNF) (SG) 84805000 5 0.002 SET CHINA Nhava Sheva Sea
GLASS BOTTLE MOULD - PLUNGER (100ML PNF) (SG) 84805000 3 0.0017 SET CHINA Nhava Sheva Sea
LABORATORY GLASSWARE - BOTTLE,GL45,BLUE PP CAP, 100ML 70179010 10 0.003 PCS UNITED STATES Nhava Sheva Sea
ITEM CODE MS.R130006HP 100ml room spray filled in the outer sprayed bottle (AROMATIC AIR DIFFUSER ROOM SPRAY) 33074900 408 0.0732 PCS CHINA Patparganj
ITEM CODE MS.R130006IB 100ml room spray filled in the outer sprayed bottle (AROMATIC AIR DIFFUSER ROOM SPRAY) 33074900 408 0.0732 PCS CHINA Patparganj
ITEM CODE MS.R130006MS 100ml room spray filled in the outer sprayed bottle (AROMATIC AIR DIFFUSER ROOM SPRAY) 33074900 408 0.0732 PCS CHINA Patparganj
ITEM CODE MS.R130006PC 100ml room spray filled in the outer sprayed bottle with (AROMATIC AIR DIFFUSER ROOM SPRAY) 33074900 408 0.0732 PCS CHINA Patparganj
ITEM CODE MS.R130006PP 100ml room spray filled in the outer sprayed bottle (AROMATIC AIR DIFFUSER ROOM SPRAY) 33074900 408 0.0732 PCS CHINA Patparganj
ALUMINIUM BOTTLES 100ML [ 5000 NOS] 76129010 205 0.7975 KGS CHINA Chennai Sea

Looking to import 100ml Bottles?

With end to end global trade solutions from Connect2India, we enable Indian SMEs to start and grow their business globally

Yearwise analysis of 100ml Bottles import to India

Below is the detailed list of 100ml Bottles import to India with quantity, volume, price, origin port and the destination port.

Increase your 100ml Bottles imports with steady access to working capital with our import financing solutions at Connect2India.

Looking to import 100ml Bottles from genuine and best quality Indian suppliers?

Graphical representation for 100ml Bottles import

100ml Bottles - Recent import data

How connect2india can help you import 100ml Bottles?

Connect2India can help you find 100ml Bottles suppliers / exporters in more than 100 countries, arrange import orders for 100ml Bottles, find the most effective market to import 100ml Bottles, help you out with procedures and formalities required to import 100ml Bottles in India and also assist you in 100ml Bottles shipment and logistics. Our trade experts are always available for any help regarding the import of 100ml Bottles and its products. If you want more information, please get in touch with our trade experts here

People Also Ask

Whom can I contact for more information on 100ml Bottles import to India?

You can submit your requirement on Connect2India and our representative will get in touch with you with more information about 100ml Bottles. Alternatively, you can call us @ +91-7876759999 or email us to info@connect2India.com

Which is the most popular Indian port for 100ml Bottles import?

Nhava Sheva Sea is the most popular port for 100ml Bottles import to India

What are the top three import shipments of 100ml Bottles traded to India?

Following are the top three import shipments of 100ml Bottles traded to India :

  • PARACETAMOL 40MG/ML SOLUTION 100ML BOTTLE (PARACETAMOL) (QTY: 20 PCS)
  • REPLENISHMENT SOLUTION 100ML BOTTLE (QTY: 5 NUM / USD 39.02 PER NUM)
  • ELECTROLYTE BLACK 100ML. BOTTLES (POTASSIUM HYDROXIDE SOLUTION) (QTY: 5 NUM / USD 73.21 PER NUM)